Terminal Aerodrome Forecast
Issued by NWS

Home | Current Version | Previous Version | Text Only | Print | Product List | Glossary On
Versions: 1 2 3 4 5 6 7 8 9 10 11 12 13
000
FTUS44 KTSA 061700
TAFMLC
TAF
KMLC 061720Z 0618/0718 16012G20KT P6SM OVC025
     FM062100 18012G20KT P6SM BKN040
     FM070300 15010KT P6SM OVC025 PROB30 0706/0712 6SM -TSRA
      BKN015CB
     FM071200 17010KT 4SM BR BKN015=

USA.gov is the U.S. government's official web portal to all federal, state and local government web resources and services.